• Join FlightAware (Why Join?)
  • Login
  • US Flag 
05:23AM EDT


 

Airport Tracker/Info


-or-


 

Live Flight TrackerFlight Track Log ✈ XOJ552 ✈ 19.08.2013 ✈ KBHB - KORL

Flight Track Log - Related Links

Times and Time Zones

All times are in EDT time to prevent confusion due to time zone crossing. See the XOJ552 flight status page for this flight to view local times or setup timezone preferences in your user account.

Time Position Orientation Groundspeed Altitude Reporting Facility
EDT Latitude Longitude Course Direction KTS MPH feet Rate Location/Type
09:53AM 44.3419 -68.4453 225° Southwest 252 290 7,100  Level Boston Center
09:54AM 44.2819 -68.5189 221° Southwest 272 313 11,100 3,600 Climbing Boston Center
09:55AM 44.2181 -68.5986 222° Southwest 292 336 14,200 3,120 Climbing Boston Center
09:56AM 44.1461 -68.6900 222° Southwest 326 375 17,400 3,060 Climbing Boston Center
09:57AM 44.0717 -68.7786 221° Southwest 347 399 20,500 2,880 Climbing Boston Center
09:58AM 43.9551 -68.9452 225° Southwest  Level FlightAware Approximate
09:58AM 43.9933 -68.8728 221° Southwest 365 420 23,200  Level Boston Center
09:59AM 43.9150 -68.9697 222° Southwest 377 434 25,900 2,520 Climbing Boston Center
10:00AM 43.8325 -69.0694 221° Southwest 377 434 28,400 2,460 Climbing Boston Center
10:01AM 43.7519 -69.1661 221° Southwest 388 447 30,900 2,280 Climbing Boston Center
10:02AM 43.6714 -69.2653 222° Southwest 388 447 33,000 2,040 Climbing Boston Center
10:03AM 43.5883 -69.3556 218° Southwest 388 447 35,000 1,980 Climbing Boston Center
10:04AM 43.5058 -69.4628 223° Southwest 388 447 37,000 1,980 Climbing Boston Center
10:05AM 43.4308 -69.5494 220° Southwest 376 433 39,000 1,440 Climbing Boston Center
10:06AM 43.3761 -69.6150 221° Southwest 363 418 40,000 900 Climbing Boston Center
10:07AM 43.2892 -69.7217 222° Southwest 348 400 40,900 720 Climbing Boston Center
10:08AM 43.2119 -69.8106 220° Southwest 354 407 41,500 480 Climbing Boston Center
10:09AM 43.1350 -69.9019 221° Southwest 360 414 41,900 360 Climbing Boston Center
10:10AM 43.0658 -69.9875 222° Southwest 372 428 42,300 420 Climbing Boston Center
10:11AM 42.9886 -70.0814 222° Southwest 377 434 42,800 300 Climbing Boston Center
10:12AM 42.9072 -70.1722 219° Southwest 377 434 43,000 60 Climbing Boston Center
10:13AM 42.8175 -70.2747 220° Southwest 377 434 43,000  Level Boston Center
10:14AM 42.7339 -70.3708 220° Southwest 382 440 43,000  Level Boston Center
10:15AM 42.6561 -70.4639 221° Southwest 382 440 43,000  Level Boston Center
10:16AM 42.5725 -70.5625 221° Southwest 394 453 43,000  Level Boston Center
10:17AM 42.4947 -70.6578 222° Southwest 394 453 43,000  Level Boston Center
10:18AM 42.4150 -70.7500 221° Southwest 399 459 43,000  Level Boston Center
10:19AM 42.3494 -70.8275 221° Southwest 399 459 43,000  Level Boston Center
10:20AM 42.2694 -70.9333 224° Southwest 387 445 43,000  Level Boston Center
10:21AM 42.1792 -71.0392 221° Southwest 390 449 43,000  Level Boston Center
10:22AM 42.0989 -71.1306 220° Southwest 390 449 43,000  Level Boston Center
10:23AM 42.0186 -71.2244 221° Southwest 385 443 43,000  Level Boston Center
10:24AM 41.9383 -71.3181 221° Southwest 385 443 43,000  Level Boston Center
10:25AM 41.8581 -71.4089 220° Southwest 385 443 43,000  Level Boston Center
10:26AM 41.7775 -71.5047 222° Southwest 385 443 43,000  Level Boston Center
10:27AM 41.6928 -71.5922 218° Southwest 385 443 43,000  Level Boston Center
10:28AM 41.6122 -71.6819 220° Southwest 385 443 43,000  Level Boston Center
10:29AM 41.5294 -71.7744 220° Southwest 390 449 43,000  Level Boston Center
10:30AM 41.4508 -71.8694 222° Southwest 390 449 43,000  Level Boston Center
10:31AM 41.3678 -71.9617 220° Southwest 390 449 43,000  Level Boston Center
10:32AM 41.2869 -72.0533 220° Southwest 390 449 43,000  Level Boston Center
10:33AM 41.2017 -72.1478 220° Southwest 390 449 43,000  Level Boston Center
10:34AM 41.1206 -72.2417 221° Southwest 390 449 43,000  Level Boston Center
10:35AM 41.0394 -72.3300 219° Southwest 390 449 43,000  Level Boston Center
10:36AM 40.9583 -72.4208 220° Southwest 390 449 43,000  Level Boston Center
10:37AM 40.8750 -72.5114 219° Southwest 390 449 43,000  Level Boston Center
10:38AM 40.7914 -72.6047 220° Southwest 390 449 43,000  Level Boston Center
10:39AM 40.7100 -72.6839 216° Southwest 396 456 43,000  Level Boston Center
10:40AM 40.6286 -72.7792 222° Southwest 401 461 43,000  Level Boston Center
10:41AM 40.5469 -72.8717 221° Southwest 395 455 43,000  Level Boston Center
10:43AM 40.3944 -73.0394 220° Southwest 376 433 43,000  Level Washington Center
10:44AM 40.3111 -73.1294 219° Southwest 382 440 43,000  Level Washington Center
10:45AM 40.2297 -73.2222 221° Southwest 387 445 43,000  Level Washington Center
10:46AM 40.1458 -73.3119 219° Southwest 393 452 43,000  Level Washington Center
10:47AM 40.0642 -73.4011 220° Southwest 393 452 43,000  Level Washington Center
10:48AM 39.9783 -73.4878 218° Southwest 393 452 43,000  Level Washington Center
10:49AM 39.8964 -73.5767 220° Southwest 393 452 43,000  Level Washington Center
10:50AM 39.8125 -73.6656 219° Southwest 393 452 43,000  Level Washington Center
10:51AM 39.7306 -73.7542 220° Southwest 393 452 43,000  Level Washington Center
10:52AM 39.6444 -73.8453 219° Southwest 393 452 43,000  Level Washington Center
10:53AM 39.5603 -73.9333 219° Southwest 393 452 43,000  Level Washington Center
10:54AM 39.4803 -74.0239 221° Southwest 393 452 43,000  Level Washington Center
10:55AM 39.3939 -74.1064 216° Southwest 393 452 43,000  Level Washington Center
10:56AM 39.3094 -74.1967 220° Southwest 393 452 43,000  Level Washington Center
10:57AM 39.2250 -74.2842 219° Southwest 393 452 43,000  Level Washington Center
10:58AM 39.1447 -74.3767 222° Southwest 393 452 43,000  Level Washington Center
10:59AM 39.0475 -74.4692 216° Southwest 393 452 43,000  Level Washington Center
11:00AM 38.9669 -74.5425 215° Southwest 398 458 43,000  Level Washington Center
11:01AM 38.8678 -74.6478 220° Southwest 392 451 43,000  Level Washington Center
11:02AM 38.7811 -74.7528 223° Southwest 386 444 43,000  Level Washington Center
11:03AM 38.6897 -74.8311 214° Southwest 386 444 43,000  Level Washington Center
11:04AM 38.6069 -74.9247 221° Southwest 392 451 43,000  Level Washington Center
11:05AM 38.5136 -74.9947 210° Southwest 397 457 43,000  Level Washington Center
11:06AM 38.4222 -75.0803 216° Southwest 402 463 43,000  Level Washington Center
11:07AM 38.3369 -75.1444 211° Southwest 402 463 43,000  Level Washington Center
11:08AM 38.2392 -75.2350 216° Southwest 402 463 43,000  Level Washington Center
11:09AM 38.1478 -75.3119 214° Southwest 402 463 43,000  Level Washington Center
11:10AM 38.0542 -75.3914 214° Southwest 402 463 43,000  Level Washington Center
11:11AM 37.9625 -75.4706 214° Southwest 396 456 43,000  Level Washington Center
11:12AM 37.8708 -75.5472 213° Southwest 396 456 43,000  Level Washington Center
11:13AM 37.7789 -75.6233 213° Southwest 396 456 43,000  Level Washington Center
11:14AM 37.6850 -75.6994 213° Southwest 396 456 43,000  Level Washington Center
11:15AM 37.5975 -75.7778 215° Southwest 396 456 43,000  Level Washington Center
11:16AM 37.5033 -75.8536 213° Southwest 396 456 43,000  Level Washington Center
11:17AM 37.4136 -75.9292 214° Southwest 396 456 43,000  Level Washington Center
11:18AM 37.3214 -76.0044 213° Southwest 396 456 43,000  Level Washington Center
11:19AM 37.2272 -76.0822 213° Southwest 396 456 43,000  Level Washington Center
11:20AM 37.1542 -76.1417 213° Southwest 396 456 43,000  Level Washington Center
11:21AM 37.0453 -76.2189 210° Southwest 401 461 43,000  Level Washington Center
11:22AM 36.9508 -76.2989 214° Southwest 411 473 43,000  Level Washington Center
11:23AM 36.8586 -76.3733 213° Southwest 411 473 43,000  Level Washington Center
11:24AM 36.7622 -76.4528 213° Southwest 411 473 43,000  Level Washington Center
11:25AM 36.6719 -76.5319 215° Southwest 416 479 43,000  Level Washington Center
11:26AM 36.5772 -76.6083 213° Southwest 416 479 43,000  Level Washington Center
11:27AM 36.4828 -76.6822 212° Southwest 416 479 43,000  Level Washington Center
11:28AM 36.3861 -76.7581 212° Southwest 416 479 43,000  Level Washington Center
11:29AM 36.2914 -76.8367 214° Southwest 416 479 43,000  Level Washington Center
11:30AM 36.1947 -76.9122 212° Southwest 416 479 43,000  Level Washington Center
11:31AM 36.0978 -76.9878 212° Southwest 416 479 43,000  Level Washington Center
11:32AM 36.0011 -77.0631 212° Southwest 421 484 43,000  Level Washington Center
11:33AM 35.9083 -77.1358 212° Southwest 421 484 43,000  Level Washington Center
11:34AM 35.8133 -77.2133 213° Southwest 416 479 43,000  Level Washington Center
11:35AM 35.7164 -77.2908 213° Southwest 422 486 43,000  Level Washington Center
11:36AM 35.6192 -77.3653 212° Southwest 422 486 43,000  Level Washington Center
11:37AM 35.5200 -77.4422 212° Southwest 422 486 43,000  Level Washington Center
11:38AM 35.4250 -77.5139 212° Southwest 422 486 43,000  Level Washington Center
11:39AM 35.3317 -77.5983 216° Southwest 422 486 43,000  Level Washington Center
11:40AM 35.2406 -77.6928 220° Southwest 422 486 43,000  Level Washington Center
11:41AM 35.1511 -77.7842 220° Southwest 427 491 43,000  Level Washington Center
11:42AM 35.0619 -77.8758 220° Southwest 427 491 43,000  Level Washington Center
11:43AM 34.9725 -77.9669 220° Southwest 422 486 43,000  Level Washington Center
11:44AM 34.8831 -78.0581 220° Southwest 422 486 43,000  Level Washington Center
11:45AM 34.7994 -78.1567 224° Southwest 422 486 43,000  Level Washington Center
11:47AM 34.6542 -78.3042 220° Southwest 425 489 43,000  Level Jacksonville Center
11:48AM 34.5656 -78.3947 220° Southwest 425 489 43,000  Level Jacksonville Center
11:49AM 34.4728 -78.4853 219° Southwest 425 489 43,000  Level Jacksonville Center
11:50AM 34.3822 -78.5778 220° Southwest 430 495 43,000  Level Jacksonville Center
11:51AM 34.2914 -78.6703 220° Southwest 430 495 43,000  Level Jacksonville Center
11:52AM 34.1986 -78.7603 219° Southwest 436 502 43,000  Level Jacksonville Center
11:53AM 34.1075 -78.8522 220° Southwest 441 507 43,000 -60 Level Jacksonville Center
11:54AM 34.0144 -78.9417 219° Southwest 441 507 42,900  Descending Jacksonville Center
11:55AM 33.9233 -79.0308 219° Southwest 441 507 43,000  Climbing Jacksonville Center
11:56AM 33.8303 -79.1250 220° Southwest 441 507 43,000  Level Jacksonville Center
11:57AM 33.7369 -79.2164 219° Southwest 441 507 43,000  Level Jacksonville Center
11:58AM 33.6394 -79.3103 219° Southwest 434 499 43,000  Level Jacksonville Center
11:59AM 33.5481 -79.3986 219° Southwest 434 499 43,000  Level Jacksonville Center
12:00PM 33.4547 -79.4919 220° Southwest 434 499 43,000  Level Jacksonville Center
12:01PM 33.3611 -79.5850 220° Southwest 439 505 43,000  Level Jacksonville Center
12:02PM 33.2675 -79.6756 219° Southwest 444 511 43,000  Level Jacksonville Center
12:03PM 33.1736 -79.7658 219° Southwest 444 511 43,000  Level Jacksonville Center
12:04PM 33.0778 -79.8558 218° Southwest 444 511 43,000  Level Jacksonville Center
12:05PM 32.9797 -79.9483 218° Southwest 444 511 43,000  Level Jacksonville Center
12:06PM 32.8919 -80.0303 218° Southwest 450 518 43,000  Level Jacksonville Center
12:07PM 32.7872 -80.1128 214° Southwest 450 518 43,000  Level Jacksonville Center
12:08PM 32.6825 -80.1925 213° Southwest 455 524 43,000  Level Jacksonville Center
12:09PM 32.5819 -80.2694 213° Southwest 450 518 43,000  Level Jacksonville Center
12:10PM 32.4750 -80.3464 211° Southwest 450 518 43,000  Level Jacksonville Center
12:11PM 32.3681 -80.4256 212° Southwest 450 518 43,000 -540 Level Jacksonville Center
12:12PM 32.2608 -80.5022 211° Southwest 450 518 42,000 -1,020 Descending Jacksonville Center
12:13PM 32.1558 -80.5833 213° Southwest 450 518 41,000 -1,020 Descending Jacksonville Center
12:14PM 32.0550 -80.6547 211° Southwest 443 510 40,000 -1,080 Descending Jacksonville Center
12:15PM 31.9372 -80.7383 211° Southwest 448 516 38,900 -1,020 Descending Jacksonville Center
12:16PM 31.8281 -80.8167 211° Southwest 453 521 38,000 -480 Descending Jacksonville Center
12:17PM 31.7331 -80.8847 211° Southwest 458 527 38,000  Level Jacksonville Center
12:18PM 31.6108 -80.9531 205° Southwest 443 510 38,000  Level Jacksonville Center
12:19PM 31.4986 -80.9775 191° South 448 516 38,000  Level Jacksonville Center
12:20PM 31.3633 -81.0069 191° South 456 525 38,000  Level Jacksonville Center
12:21PM 31.2508 -81.0311 190° South 456 525 38,000  Level Jacksonville Center
12:22PM 31.1261 -81.0556 190° South 456 525 38,000  Level Jacksonville Center
12:23PM 31.0011 -81.0822 190° South 456 525 38,000 -1,320 Level Jacksonville Center
12:24PM 30.8783 -81.1064 190° South 456 525 35,400 -2,700 Descending Jacksonville Center
12:25PM 30.7594 -81.1278 189° South 450 518 32,700 -2,700 Descending Jacksonville Center
12:26PM 30.6361 -81.1108 173° South 436 502 30,100 -2,520 Descending Jacksonville Center
12:27PM 30.5106 -81.0817 169° South 449 517 27,700 -2,220 Descending Jacksonville Center
12:28PM 30.3847 -81.0578 171° South 455 524 25,700 -2,040 Descending Jacksonville Center
12:29PM 30.2531 -81.0314 170° South 450 518 23,700 -2,040 Descending Jacksonville Center
12:30PM 30.1378 -81.0047 169° South 444 511 21,700 -2,040 Descending Jacksonville Center
12:31PM 30.0414 -80.9828 169° South 429 494 19,900 -2,040 Descending Jacksonville Center
12:32PM 29.9328 -80.9753 177° South 425 489 18,100 -1,980 Descending Jacksonville Center
12:33PM 29.8014 -80.9850 184° South 406 467 16,000 -1,980 Descending Jacksonville Center
12:34PM 29.6928 -80.9919 183° South 383 441 13,900 -2,040 Descending Jacksonville Center
12:35PM 29.5992 -81.0033 186° South 367 422 12,100 -2,040 Descending Jacksonville Center
12:36PM 29.5114 -81.0097 184° South 335 386 10,300 -1,620 Descending Jacksonville Center
12:37PM 29.4303 -81.0136 182° South 281 323 9,100 -600 Descending Jacksonville Center
12:38PM 29.3467 -81.0200 184° South 273 314 9,100 -540 Level Jacksonville Center
12:39PM 29.2717 -81.0261 184° South 275 316 8,000 -1,380 Descending Jacksonville Center
12:40PM 29.2008 -81.0300 183° South 261 300 6,500 -1,080 Descending Jacksonville Center
12:42PM 29.0667 -81.0333 181° South 249 287 5,000 -540 Descending Orlando TRACON
12:43PM 29.0000 -81.0500 192° South 260 299 5,000 -180 Level Orlando TRACON
12:44PM 28.9167 -81.0500 180° South 265 305 4,700 -720 Descending Orlando TRACON
12:44PM 28.8833 -81.1167 240° Southwest 283 326 3,700 -900 Descending Orlando TRACON
12:45PM 28.8333 -81.1833 229° Southwest 279 321 3,000 -420 Descending Orlando TRACON
12:46PM 28.7833 -81.2333 221° Southwest 253 291 3,000 -480 Level Orlando TRACON
12:47PM 28.7500 -81.3000 240° Southwest 262 302 2,200 -540 Descending Orlando TRACON
12:48PM 28.7167 -81.3667 240° Southwest 256 295 2,000 -120 Descending Orlando TRACON
12:49PM 28.6667 -81.4500 236° Southwest 277 319 2,000  Level Orlando TRACON
12:50PM 28.5833 -81.4500 180° South 251 289 2,000 -240 Level Orlando TRACON
12:51PM 28.5333 -81.4500 180° South 214 246 1,600 -420 Descending Orlando TRACON
12:52PM 28.5167 -81.3833 106° East 186 214 1,200 -420 Descending Orlando TRACON
12:54PM 28.5455 -81.3329 113° Southeast  Level Estimated
01:01PM 28.5455 -81.3329 113° Southeast  Level Estimated
01:02PM 28.5455 -81.3329 113° Southeast  Level Estimated